sensor_id;sensor_type;location;lat;lon;timestamp;P1;durP1;ratioP1;P2;durP2;ratioP2
71320;SDS011;59118;54.322;18.576;2022-12-07T00:03:57;25.65;;;10.40;;
71320;SDS011;59118;54.322;18.576;2022-12-07T00:06:31;30.17;;;10.55;;
71320;SDS011;59118;54.322;18.576;2022-12-07T00:08:58;25.80;;;9.48;;
71320;SDS011;59118;54.322;18.576;2022-12-07T00:11:25;25.00;;;10.00;;
71320;SDS011;59118;54.322;18.576;2022-12-07T00:13:53;23.20;;;9.30;;
71320;SDS011;59118;54.322;18.576;2022-12-07T00:16:26;25.90;;;9.95;;
71320;SDS011;59118;54.322;18.576;2022-12-07T00:18:56;27.23;;;9.77;;
71320;SDS011;59118;54.322;18.576;2022-12-07T00:21:27;22.98;;;9.05;;
71320;SDS011;59118;54.322;18.576;2022-12-07T00:23:55;28.23;;;10.67;;
71320;SDS011;59118;54.322;18.576;2022-12-07T00:26:23;23.35;;;9.10;;
71320;SDS011;59118;54.322;18.576;2022-12-07T00:28:52;25.63;;;9.50;;
71320;SDS011;59118;54.322;18.576;2022-12-07T00:31:24;24.75;;;8.73;;
71320;SDS011;59118;54.322;18.576;2022-12-07T00:33:52;24.83;;;9.02;;
71320;SDS011;59118;54.322;18.576;2022-12-07T00:36:20;23.17;;;9.60;;
71320;SDS011;59118;54.322;18.576;2022-12-07T00:38:52;26.15;;;9.63;;
71320;SDS011;59118;54.322;18.576;2022-12-07T00:41:21;22.95;;;8.90;;
71320;SDS011;59118;54.322;18.576;2022-12-07T00:43:50;25.80;;;9.57;;
71320;SDS011;59118;54.322;18.576;2022-12-07T00:46:17;26.33;;;10.15;;
71320;SDS011;59118;54.322;18.576;2022-12-07T00:48:45;28.63;;;9.37;;
71320;SDS011;59118;54.322;18.576;2022-12-07T00:51:12;24.65;;;9.07;;
71320;SDS011;59118;54.322;18.576;2022-12-07T00:53:42;23.35;;;9.73;;
71320;SDS011;59118;54.322;18.576;2022-12-07T00:56:09;23.35;;;9.13;;
71320;SDS011;59118;54.322;18.576;2022-12-07T00:58:40;26.25;;;9.23;;
71320;SDS011;59118;54.322;18.576;2022-12-07T01:01:07;26.20;;;9.20;;
71320;SDS011;59118;54.322;18.576;2022-12-07T01:03:35;24.33;;;8.60;;
71320;SDS011;59118;54.322;18.576;2022-12-07T01:06:02;25.35;;;8.93;;
71320;SDS011;59118;54.322;18.576;2022-12-07T01:08:29;27.23;;;9.40;;
71320;SDS011;59118;54.322;18.576;2022-12-07T01:11:04;25.50;;;8.77;;
71320;SDS011;59118;54.322;18.576;2022-12-07T01:13:32;22.93;;;7.67;;
71320;SDS011;59118;54.322;18.576;2022-12-07T01:16:00;23.00;;;8.55;;
71320;SDS011;59118;54.322;18.576;2022-12-07T01:18:28;23.10;;;9.05;;
71320;SDS011;59118;54.322;18.576;2022-12-07T01:21:01;27.08;;;9.95;;
71320;SDS011;59118;54.322;18.576;2022-12-07T01:23:31;28.60;;;9.73;;
71320;SDS011;59118;54.322;18.576;2022-12-07T01:25:59;22.30;;;9.33;;
71320;SDS011;59118;54.322;18.576;2022-12-07T01:28:27;23.38;;;9.07;;
71320;SDS011;59118;54.322;18.576;2022-12-07T01:30:58;22.38;;;7.45;;
71320;SDS011;59118;54.322;18.576;2022-12-07T01:33:35;23.60;;;8.73;;
71320;SDS011;59118;54.322;18.576;2022-12-07T01:38:48;23.93;;;8.30;;
71320;SDS011;59118;54.322;18.576;2022-12-07T01:41:18;23.67;;;8.10;;
71320;SDS011;59118;54.322;18.576;2022-12-07T01:46:40;25.48;;;9.65;;
71320;SDS011;59118;54.322;18.576;2022-12-07T01:49:12;20.95;;;7.45;;
71320;SDS011;59118;54.322;18.576;2022-12-07T01:51:45;22.67;;;8.87;;
71320;SDS011;59118;54.322;18.576;2022-12-07T01:54:12;25.10;;;8.88;;
71320;SDS011;59118;54.322;18.576;2022-12-07T01:56:42;22.95;;;8.00;;
71320;SDS011;59118;54.322;18.576;2022-12-07T01:59:10;27.20;;;8.80;;
71320;SDS011;59118;54.322;18.576;2022-12-07T02:01:36;25.52;;;8.82;;
71320;SDS011;59118;54.322;18.576;2022-12-07T02:04:03;26.33;;;8.30;;
71320;SDS011;59118;54.322;18.576;2022-12-07T02:06:31;24.45;;;8.63;;
71320;SDS011;59118;54.322;18.576;2022-12-07T02:08:59;26.00;;;8.93;;
71320;SDS011;59118;54.322;18.576;2022-12-07T02:11:25;25.27;;;8.20;;
71320;SDS011;59118;54.322;18.576;2022-12-07T02:13:53;23.98;;;8.40;;
71320;SDS011;59118;54.322;18.576;2022-12-07T02:21:46;24.30;;;8.75;;
71320;SDS011;59118;54.322;18.576;2022-12-07T02:33:04;26.10;;;8.48;;
71320;SDS011;59118;54.322;18.576;2022-12-07T02:35:46;22.27;;;8.20;;
71320;SDS011;59118;54.322;18.576;2022-12-07T02:38:19;23.02;;;8.52;;
71320;SDS011;59118;54.322;18.576;2022-12-07T02:40:52;25.55;;;8.43;;
71320;SDS011;59118;54.322;18.576;2022-12-07T02:46:38;22.38;;;6.80;;
71320;SDS011;59118;54.322;18.576;2022-12-07T02:49:07;27.38;;;8.63;;
71320;SDS011;59118;54.322;18.576;2022-12-07T02:51:38;24.38;;;7.70;;
71320;SDS011;59118;54.322;18.576;2022-12-07T02:54:17;23.60;;;8.00;;
71320;SDS011;59118;54.322;18.576;2022-12-07T02:56:48;25.13;;;7.53;;
71320;SDS011;59118;54.322;18.576;2022-12-07T03:05:13;19.95;;;6.75;;
71320;SDS011;59118;54.322;18.576;2022-12-07T03:10:20;18.20;;;6.43;;
71320;SDS011;59118;54.322;18.576;2022-12-07T03:15:43;16.10;;;6.45;;
71320;SDS011;59118;54.322;18.576;2022-12-07T03:18:16;15.90;;;5.63;;
71320;SDS011;59118;54.322;18.576;2022-12-07T03:20:45;17.73;;;5.93;;
71320;SDS011;59118;54.322;18.576;2022-12-07T03:23:14;14.23;;;5.10;;
71320;SDS011;59118;54.322;18.576;2022-12-07T03:25:43;17.25;;;4.95;;
71320;SDS011;59118;54.322;18.576;2022-12-07T03:28:11;14.35;;;5.53;;
71320;SDS011;59118;54.322;18.576;2022-12-07T03:30:57;15.60;;;5.45;;
71320;SDS011;59118;54.322;18.576;2022-12-07T03:33:32;14.70;;;4.88;;
71320;SDS011;59118;54.322;18.576;2022-12-07T03:38:38;12.63;;;4.75;;
71320;SDS011;59118;54.322;18.576;2022-12-07T03:41:18;12.63;;;4.43;;
71320;SDS011;59118;54.322;18.576;2022-12-07T03:43:49;15.35;;;5.10;;
71320;SDS011;59118;54.322;18.576;2022-12-07T03:49:16;12.70;;;4.73;;
71320;SDS011;59118;54.322;18.576;2022-12-07T03:51:50;12.98;;;4.75;;
71320;SDS011;59118;54.322;18.576;2022-12-07T03:54:37;15.35;;;5.25;;
71320;SDS011;59118;54.322;18.576;2022-12-07T03:57:29;12.32;;;4.30;;
71320;SDS011;59118;54.322;18.576;2022-12-07T03:59:56;13.27;;;4.57;;
71320;SDS011;59118;54.322;18.576;2022-12-07T04:02:24;14.93;;;4.40;;
71320;SDS011;59118;54.322;18.576;2022-12-07T04:04:54;13.73;;;4.88;;
71320;SDS011;59118;54.322;18.576;2022-12-07T04:07:21;12.30;;;4.55;;
71320;SDS011;59118;54.322;18.576;2022-12-07T04:09:48;11.73;;;4.63;;
71320;SDS011;59118;54.322;18.576;2022-12-07T04:12:14;12.40;;;4.90;;
71320;SDS011;59118;54.322;18.576;2022-12-07T04:14:41;12.47;;;4.60;;
71320;SDS011;59118;54.322;18.576;2022-12-07T04:17:08;13.10;;;4.30;;
71320;SDS011;59118;54.322;18.576;2022-12-07T04:19:34;12.80;;;4.80;;
71320;SDS011;59118;54.322;18.576;2022-12-07T04:22:01;11.13;;;4.65;;
71320;SDS011;59118;54.322;18.576;2022-12-07T04:24:29;10.88;;;4.60;;
71320;SDS011;59118;54.322;18.576;2022-12-07T04:26:56;10.63;;;4.80;;
71320;SDS011;59118;54.322;18.576;2022-12-07T04:29:22;13.02;;;4.50;;
71320;SDS011;59118;54.322;18.576;2022-12-07T04:31:49;11.95;;;4.28;;
71320;SDS011;59118;54.322;18.576;2022-12-07T04:34:15;12.55;;;4.45;;
71320;SDS011;59118;54.322;18.576;2022-12-07T04:36:42;10.65;;;4.05;;
71320;SDS011;59118;54.322;18.576;2022-12-07T04:39:26;8.70;;;3.23;;
71320;SDS011;59118;54.322;18.576;2022-12-07T04:41:55;10.07;;;3.90;;
71320;SDS011;59118;54.322;18.576;2022-12-07T04:44:22;12.65;;;4.22;;
71320;SDS011;59118;54.322;18.576;2022-12-07T04:46:50;10.88;;;3.92;;
71320;SDS011;59118;54.322;18.576;2022-12-07T04:49:17;9.60;;;3.92;;
71320;SDS011;59118;54.322;18.576;2022-12-07T04:51:44;10.23;;;4.17;;
71320;SDS011;59118;54.322;18.576;2022-12-07T04:54:11;9.32;;;3.42;;
71320;SDS011;59118;54.322;18.576;2022-12-07T04:56:38;8.25;;;3.65;;
71320;SDS011;59118;54.322;18.576;2022-12-07T04:59:05;10.43;;;3.50;;
71320;SDS011;59118;54.322;18.576;2022-12-07T05:01:31;8.23;;;3.30;;
71320;SDS011;59118;54.322;18.576;2022-12-07T05:03:58;8.90;;;3.73;;
71320;SDS011;59118;54.322;18.576;2022-12-07T05:06:25;10.50;;;3.97;;
71320;SDS011;59118;54.322;18.576;2022-12-07T05:08:51;9.43;;;3.53;;
71320;SDS011;59118;54.322;18.576;2022-12-07T05:11:18;8.45;;;3.17;;
71320;SDS011;59118;54.322;18.576;2022-12-07T05:14:05;9.00;;;3.70;;
71320;SDS011;59118;54.322;18.576;2022-12-07T05:16:33;8.53;;;3.40;;
71320;SDS011;59118;54.322;18.576;2022-12-07T05:18:59;11.45;;;3.70;;
71320;SDS011;59118;54.322;18.576;2022-12-07T05:21:26;10.18;;;4.25;;
71320;SDS011;59118;54.322;18.576;2022-12-07T05:23:52;10.57;;;3.55;;
71320;SDS011;59118;54.322;18.576;2022-12-07T05:26:19;11.15;;;4.03;;
71320;SDS011;59118;54.322;18.576;2022-12-07T05:28:49;9.53;;;3.73;;
71320;SDS011;59118;54.322;18.576;2022-12-07T05:31:16;9.75;;;4.15;;
71320;SDS011;59118;54.322;18.576;2022-12-07T05:33:43;9.55;;;3.80;;
71320;SDS011;59118;54.322;18.576;2022-12-07T05:36:09;10.95;;;4.47;;
71320;SDS011;59118;54.322;18.576;2022-12-07T05:38:36;9.60;;;4.30;;
71320;SDS011;59118;54.322;18.576;2022-12-07T05:41:03;9.97;;;4.50;;
71320;SDS011;59118;54.322;18.576;2022-12-07T05:43:30;10.35;;;4.45;;
71320;SDS011;59118;54.322;18.576;2022-12-07T05:45:57;10.93;;;4.38;;
71320;SDS011;59118;54.322;18.576;2022-12-07T05:48:24;10.30;;;4.22;;
71320;SDS011;59118;54.322;18.576;2022-12-07T05:50:51;10.02;;;4.20;;
71320;SDS011;59118;54.322;18.576;2022-12-07T05:53:18;11.80;;;4.63;;
71320;SDS011;59118;54.322;18.576;2022-12-07T05:55:48;11.07;;;4.30;;
71320;SDS011;59118;54.322;18.576;2022-12-07T05:58:15;13.80;;;4.75;;
71320;SDS011;59118;54.322;18.576;2022-12-07T06:00:59;11.80;;;4.47;;
71320;SDS011;59118;54.322;18.576;2022-12-07T06:03:26;10.85;;;4.65;;
71320;SDS011;59118;54.322;18.576;2022-12-07T06:05:53;10.90;;;4.10;;
71320;SDS011;59118;54.322;18.576;2022-12-07T06:08:19;10.82;;;4.05;;
71320;SDS011;59118;54.322;18.576;2022-12-07T06:10:46;9.85;;;3.80;;
71320;SDS011;59118;54.322;18.576;2022-12-07T06:13:35;12.10;;;3.38;;
71320;SDS011;59118;54.322;18.576;2022-12-07T06:16:01;11.65;;;3.10;;
71320;SDS011;59118;54.322;18.576;2022-12-07T06:18:28;6.27;;;2.50;;
71320;SDS011;59118;54.322;18.576;2022-12-07T06:20:54;5.72;;;2.28;;
71320;SDS011;59118;54.322;18.576;2022-12-07T06:23:21;5.43;;;2.05;;
71320;SDS011;59118;54.322;18.576;2022-12-07T06:25:47;5.00;;;1.52;;
71320;SDS011;59118;54.322;18.576;2022-12-07T06:28:13;2.53;;;1.38;;
71320;SDS011;59118;54.322;18.576;2022-12-07T06:30:40;3.27;;;1.30;;
71320;SDS011;59118;54.322;18.576;2022-12-07T06:33:06;2.95;;;1.30;;
71320;SDS011;59118;54.322;18.576;2022-12-07T06:35:33;3.28;;;1.20;;
71320;SDS011;59118;54.322;18.576;2022-12-07T06:37:59;4.50;;;1.40;;
71320;SDS011;59118;54.322;18.576;2022-12-07T06:40:26;3.33;;;1.40;;
71320;SDS011;59118;54.322;18.576;2022-12-07T06:42:52;5.07;;;1.67;;
71320;SDS011;59118;54.322;18.576;2022-12-07T06:45:19;3.20;;;1.25;;
71320;SDS011;59118;54.322;18.576;2022-12-07T06:47:46;3.63;;;1.27;;
71320;SDS011;59118;54.322;18.576;2022-12-07T06:50:12;4.63;;;1.65;;
71320;SDS011;59118;54.322;18.576;2022-12-07T06:52:39;4.80;;;1.88;;
71320;SDS011;59118;54.322;18.576;2022-12-07T06:55:05;4.03;;;1.60;;
71320;SDS011;59118;54.322;18.576;2022-12-07T06:57:32;3.67;;;1.52;;
71320;SDS011;59118;54.322;18.576;2022-12-07T06:59:58;4.10;;;1.63;;
71320;SDS011;59118;54.322;18.576;2022-12-07T07:02:26;3.97;;;1.85;;
71320;SDS011;59118;54.322;18.576;2022-12-07T07:04:52;4.65;;;1.75;;
71320;SDS011;59118;54.322;18.576;2022-12-07T07:07:19;3.90;;;1.60;;
71320;SDS011;59118;54.322;18.576;2022-12-07T07:09:45;6.53;;;1.60;;
71320;SDS011;59118;54.322;18.576;2022-12-07T07:12:12;4.65;;;1.63;;
71320;SDS011;59118;54.322;18.576;2022-12-07T07:14:38;5.32;;;2.35;;
71320;SDS011;59118;54.322;18.576;2022-12-07T07:17:05;6.20;;;2.25;;
71320;SDS011;59118;54.322;18.576;2022-12-07T07:19:32;5.30;;;2.10;;
71320;SDS011;59118;54.322;18.576;2022-12-07T07:21:58;7.88;;;2.70;;
71320;SDS011;59118;54.322;18.576;2022-12-07T07:24:25;7.75;;;2.55;;
71320;SDS011;59118;54.322;18.576;2022-12-07T07:26:52;8.43;;;2.75;;
71320;SDS011;59118;54.322;18.576;2022-12-07T07:29:18;6.85;;;2.53;;
71320;SDS011;59118;54.322;18.576;2022-12-07T07:31:45;8.23;;;3.23;;
71320;SDS011;59118;54.322;18.576;2022-12-07T07:34:11;8.82;;;3.13;;
71320;SDS011;59118;54.322;18.576;2022-12-07T07:36:39;8.82;;;3.92;;
71320;SDS011;59118;54.322;18.576;2022-12-07T07:39:05;8.50;;;3.13;;
71320;SDS011;59118;54.322;18.576;2022-12-07T07:44:17;9.03;;;3.73;;
71320;SDS011;59118;54.322;18.576;2022-12-07T07:46:44;10.38;;;4.13;;
71320;SDS011;59118;54.322;18.576;2022-12-07T07:49:10;10.80;;;4.43;;
71320;SDS011;59118;54.322;18.576;2022-12-07T07:51:37;11.70;;;4.78;;
71320;SDS011;59118;54.322;18.576;2022-12-07T07:54:03;11.48;;;5.15;;
71320;SDS011;59118;54.322;18.576;2022-12-07T07:56:30;9.63;;;4.17;;
71320;SDS011;59118;54.322;18.576;2022-12-07T07:58:56;12.55;;;4.60;;
71320;SDS011;59118;54.322;18.576;2022-12-07T08:01:23;13.88;;;5.60;;
71320;SDS011;59118;54.322;18.576;2022-12-07T08:03:49;10.98;;;4.82;;
71320;SDS011;59118;54.322;18.576;2022-12-07T08:06:16;11.60;;;5.20;;
71320;SDS011;59118;54.322;18.576;2022-12-07T08:08:42;9.93;;;5.07;;
71320;SDS011;59118;54.322;18.576;2022-12-07T08:11:09;9.55;;;4.97;;
71320;SDS011;59118;54.322;18.576;2022-12-07T08:13:35;10.10;;;4.60;;
71320;SDS011;59118;54.322;18.576;2022-12-07T08:16:06;11.57;;;4.72;;
71320;SDS011;59118;54.322;18.576;2022-12-07T08:18:35;9.98;;;4.90;;
71320;SDS011;59118;54.322;18.576;2022-12-07T08:21:03;11.27;;;4.77;;
71320;SDS011;59118;54.322;18.576;2022-12-07T08:23:30;11.70;;;5.05;;
71320;SDS011;59118;54.322;18.576;2022-12-07T08:26:05;12.80;;;5.30;;
71320;SDS011;59118;54.322;18.576;2022-12-07T08:28:33;10.27;;;4.95;;
71320;SDS011;59118;54.322;18.576;2022-12-07T08:31:00;9.60;;;4.68;;
71320;SDS011;59118;54.322;18.576;2022-12-07T08:33:27;10.67;;;4.47;;
71320;SDS011;59118;54.322;18.576;2022-12-07T08:35:54;13.02;;;4.68;;
71320;SDS011;59118;54.322;18.576;2022-12-07T08:38:21;9.25;;;4.07;;
71320;SDS011;59118;54.322;18.576;2022-12-07T08:40:55;12.73;;;5.68;;
71320;SDS011;59118;54.322;18.576;2022-12-07T08:43:22;8.80;;;4.50;;
71320;SDS011;59118;54.322;18.576;2022-12-07T08:45:51;10.10;;;4.83;;
71320;SDS011;59118;54.322;18.576;2022-12-07T08:48:24;9.98;;;4.95;;
71320;SDS011;59118;54.322;18.576;2022-12-07T08:50:51;11.35;;;4.38;;
71320;SDS011;59118;54.322;18.576;2022-12-07T08:53:18;10.73;;;4.32;;
71320;SDS011;59118;54.322;18.576;2022-12-07T08:55:47;11.25;;;4.50;;
71320;SDS011;59118;54.322;18.576;2022-12-07T08:58:14;8.50;;;4.27;;
71320;SDS011;59118;54.322;18.576;2022-12-07T09:00:40;8.05;;;4.10;;
71320;SDS011;59118;54.322;18.576;2022-12-07T09:03:08;8.70;;;4.32;;
71320;SDS011;59118;54.322;18.576;2022-12-07T09:05:35;8.48;;;3.10;;
71320;SDS011;59118;54.322;18.576;2022-12-07T09:08:01;9.23;;;3.92;;
71320;SDS011;59118;54.322;18.576;2022-12-07T09:10:28;8.80;;;4.10;;
71320;SDS011;59118;54.322;18.576;2022-12-07T09:12:55;6.70;;;3.17;;
71320;SDS011;59118;54.322;18.576;2022-12-07T09:15:22;7.90;;;3.50;;
71320;SDS011;59118;54.322;18.576;2022-12-07T09:17:48;8.23;;;3.53;;
71320;SDS011;59118;54.322;18.576;2022-12-07T09:20:17;8.77;;;3.88;;
71320;SDS011;59118;54.322;18.576;2022-12-07T09:22:48;6.77;;;3.37;;
71320;SDS011;59118;54.322;18.576;2022-12-07T09:25:14;9.43;;;4.65;;
71320;SDS011;59118;54.322;18.576;2022-12-07T09:27:43;7.70;;;3.97;;
71320;SDS011;59118;54.322;18.576;2022-12-07T09:30:10;7.65;;;3.53;;
71320;SDS011;59118;54.322;18.576;2022-12-07T09:32:36;7.97;;;4.38;;
71320;SDS011;59118;54.322;18.576;2022-12-07T09:35:03;7.07;;;2.97;;
71320;SDS011;59118;54.322;18.576;2022-12-07T09:37:30;7.47;;;3.83;;
71320;SDS011;59118;54.322;18.576;2022-12-07T09:40:01;8.63;;;3.88;;
71320;SDS011;59118;54.322;18.576;2022-12-07T09:42:38;8.95;;;4.03;;
71320;SDS011;59118;54.322;18.576;2022-12-07T09:45:07;8.65;;;4.50;;
71320;SDS011;59118;54.322;18.576;2022-12-07T09:47:39;8.37;;;4.37;;
71320;SDS011;59118;54.322;18.576;2022-12-07T09:50:10;11.98;;;4.38;;
71320;SDS011;59118;54.322;18.576;2022-12-07T09:52:39;9.82;;;4.53;;
71320;SDS011;59118;54.322;18.576;2022-12-07T09:55:10;10.93;;;4.65;;
71320;SDS011;59118;54.322;18.576;2022-12-07T09:57:38;9.25;;;4.55;;
71320;SDS011;59118;54.322;18.576;2022-12-07T10:00:12;9.30;;;4.50;;
71320;SDS011;59118;54.322;18.576;2022-12-07T10:02:42;9.32;;;4.55;;
71320;SDS011;59118;54.322;18.576;2022-12-07T10:05:13;10.13;;;4.72;;
71320;SDS011;59118;54.322;18.576;2022-12-07T10:07:49;9.85;;;4.28;;
71320;SDS011;59118;54.322;18.576;2022-12-07T10:10:17;13.40;;;6.00;;
71320;SDS011;59118;54.322;18.576;2022-12-07T10:12:54;12.90;;;5.40;;
71320;SDS011;59118;54.322;18.576;2022-12-07T10:18:26;12.75;;;5.05;;
71320;SDS011;59118;54.322;18.576;2022-12-07T10:21:09;9.50;;;4.18;;
71320;SDS011;59118;54.322;18.576;2022-12-07T10:23:37;9.93;;;4.57;;
71320;SDS011;59118;54.322;18.576;2022-12-07T10:29:02;13.23;;;5.05;;
71320;SDS011;59118;54.322;18.576;2022-12-07T10:31:41;11.75;;;4.82;;
71320;SDS011;59118;54.322;18.576;2022-12-07T10:36:46;13.95;;;4.93;;
71320;SDS011;59118;54.322;18.576;2022-12-07T10:39:20;10.40;;;3.97;;
71320;SDS011;59118;54.322;18.576;2022-12-07T10:41:57;9.90;;;4.20;;
71320;SDS011;59118;54.322;18.576;2022-12-07T10:44:31;10.18;;;4.65;;
71320;SDS011;59118;54.322;18.576;2022-12-07T10:47:08;11.13;;;4.68;;
71320;SDS011;59118;54.322;18.576;2022-12-07T10:50:11;12.05;;;4.57;;
71320;SDS011;59118;54.322;18.576;2022-12-07T11:06:51;12.17;;;4.40;;
71320;SDS011;59118;54.322;18.576;2022-12-07T11:15:16;7.85;;;3.22;;
71320;SDS011;59118;54.322;18.576;2022-12-07T11:17:48;9.00;;;3.50;;
71320;SDS011;59118;54.322;18.576;2022-12-07T11:22:51;7.80;;;3.80;;
71320;SDS011;59118;54.322;18.576;2022-12-07T11:41:52;8.38;;;3.90;;
71320;SDS011;59118;54.322;18.576;2022-12-07T11:46:59;10.17;;;4.10;;
71320;SDS011;59118;54.322;18.576;2022-12-07T11:52:20;6.15;;;3.13;;
71320;SDS011;59118;54.322;18.576;2022-12-07T11:54:52;9.52;;;4.30;;
71320;SDS011;59118;54.322;18.576;2022-12-07T11:57:33;8.30;;;3.78;;
71320;SDS011;59118;54.322;18.576;2022-12-07T12:00:06;9.37;;;4.70;;
71320;SDS011;59118;54.322;18.576;2022-12-07T12:05:33;9.18;;;4.43;;
71320;SDS011;59118;54.322;18.576;2022-12-07T12:08:03;9.60;;;3.90;;
71320;SDS011;59118;54.322;18.576;2022-12-07T12:16:57;9.65;;;4.75;;
71320;SDS011;59118;54.322;18.576;2022-12-07T12:22:23;9.65;;;4.32;;
71320;SDS011;59118;54.322;18.576;2022-12-07T12:24:55;9.52;;;4.82;;
71320;SDS011;59118;54.322;18.576;2022-12-07T12:27:40;11.80;;;5.13;;
71320;SDS011;59118;54.322;18.576;2022-12-07T12:33:03;11.85;;;4.32;;
71320;SDS011;59118;54.322;18.576;2022-12-07T12:35:33;10.00;;;4.47;;
71320;SDS011;59118;54.322;18.576;2022-12-07T12:38:21;9.57;;;4.57;;
71320;SDS011;59118;54.322;18.576;2022-12-07T12:40:55;11.90;;;5.33;;
71320;SDS011;59118;54.322;18.576;2022-12-07T12:54:33;13.30;;;6.03;;
71320;SDS011;59118;54.322;18.576;2022-12-07T12:59:34;12.23;;;5.88;;
71320;SDS011;59118;54.322;18.576;2022-12-07T13:05:23;10.73;;;4.72;;
71320;SDS011;59118;54.322;18.576;2022-12-07T13:08:24;16.67;;;6.17;;
71320;SDS011;59118;54.322;18.576;2022-12-07T13:10:57;13.40;;;5.47;;
71320;SDS011;59118;54.322;18.576;2022-12-07T13:13:50;13.43;;;5.63;;
71320;SDS011;59118;54.322;18.576;2022-12-07T13:18:43;13.73;;;6.13;;
71320;SDS011;59118;54.322;18.576;2022-12-07T13:23:37;13.13;;;4.63;;
71320;SDS011;59118;54.322;18.576;2022-12-07T13:26:36;12.60;;;5.32;;
71320;SDS011;59118;54.322;18.576;2022-12-07T13:29:16;12.82;;;4.88;;
71320;SDS011;59118;54.322;18.576;2022-12-07T13:31:44;17.05;;;5.78;;
71320;SDS011;59118;54.322;18.576;2022-12-07T13:36:59;11.88;;;4.75;;
71320;SDS011;59118;54.322;18.576;2022-12-07T13:39:34;13.48;;;5.55;;
71320;SDS011;59118;54.322;18.576;2022-12-07T13:42:06;14.15;;;5.18;;
71320;SDS011;59118;54.322;18.576;2022-12-07T13:44:53;13.27;;;4.65;;
71320;SDS011;59118;54.322;18.576;2022-12-07T13:47:36;12.43;;;4.40;;
71320;SDS011;59118;54.322;18.576;2022-12-07T13:50:28;13.05;;;4.75;;
71320;SDS011;59118;54.322;18.576;2022-12-07T13:53:13;12.43;;;4.88;;
71320;SDS011;59118;54.322;18.576;2022-12-07T13:55:45;13.85;;;4.60;;
71320;SDS011;59118;54.322;18.576;2022-12-07T13:58:19;14.18;;;4.68;;
71320;SDS011;59118;54.322;18.576;2022-12-07T14:01:06;14.13;;;4.70;;
71320;SDS011;59118;54.322;18.576;2022-12-07T14:03:35;12.43;;;4.88;;
71320;SDS011;59118;54.322;18.576;2022-12-07T14:06:07;12.65;;;4.88;;
71320;SDS011;59118;54.322;18.576;2022-12-07T14:08:35;13.88;;;3.95;;
71320;SDS011;59118;54.322;18.576;2022-12-07T14:11:01;13.23;;;4.63;;
71320;SDS011;59118;54.322;18.576;2022-12-07T14:15:58;11.70;;;4.75;;
71320;SDS011;59118;54.322;18.576;2022-12-07T14:18:29;12.65;;;4.30;;
71320;SDS011;59118;54.322;18.576;2022-12-07T14:21:23;12.23;;;4.43;;
71320;SDS011;59118;54.322;18.576;2022-12-07T14:26:38;15.10;;;4.63;;
71320;SDS011;59118;54.322;18.576;2022-12-07T14:29:18;11.70;;;4.30;;
71320;SDS011;59118;54.322;18.576;2022-12-07T14:31:57;11.27;;;3.97;;
71320;SDS011;59118;54.322;18.576;2022-12-07T14:34:25;12.35;;;4.20;;
71320;SDS011;59118;54.322;18.576;2022-12-07T14:36:52;11.70;;;4.30;;
71320;SDS011;59118;54.322;18.576;2022-12-07T14:39:19;9.83;;;3.90;;
71320;SDS011;59118;54.322;18.576;2022-12-07T14:41:45;10.80;;;3.90;;
71320;SDS011;59118;54.322;18.576;2022-12-07T14:44:19;11.98;;;4.25;;
71320;SDS011;59118;54.322;18.576;2022-12-07T14:46:51;12.65;;;4.07;;
71320;SDS011;59118;54.322;18.576;2022-12-07T14:49:41;7.97;;;3.15;;
71320;SDS011;59118;54.322;18.576;2022-12-07T14:52:11;11.23;;;3.90;;
71320;SDS011;59118;54.322;18.576;2022-12-07T14:55:19;11.13;;;3.58;;
71320;SDS011;59118;54.322;18.576;2022-12-07T14:58:11;13.38;;;3.50;;
71320;SDS011;59118;54.322;18.576;2022-12-07T15:00:39;9.85;;;3.67;;
71320;SDS011;59118;54.322;18.576;2022-12-07T15:03:07;9.98;;;2.95;;
71320;SDS011;59118;54.322;18.576;2022-12-07T15:05:34;7.77;;;3.23;;
71320;SDS011;59118;54.322;18.576;2022-12-07T15:08:01;11.80;;;3.53;;
71320;SDS011;59118;54.322;18.576;2022-12-07T15:10:29;11.90;;;4.35;;
71320;SDS011;59118;54.322;18.576;2022-12-07T15:13:01;13.02;;;3.85;;
71320;SDS011;59118;54.322;18.576;2022-12-07T15:15:48;9.07;;;3.67;;
71320;SDS011;59118;54.322;18.576;2022-12-07T15:18:19;11.40;;;3.93;;
71320;SDS011;59118;54.322;18.576;2022-12-07T15:20:46;9.27;;;3.42;;
71320;SDS011;59118;54.322;18.576;2022-12-07T15:23:13;8.63;;;3.70;;
71320;SDS011;59118;54.322;18.576;2022-12-07T15:25:40;7.47;;;2.90;;
71320;SDS011;59118;54.322;18.576;2022-12-07T15:28:07;6.70;;;2.72;;
71320;SDS011;59118;54.322;18.576;2022-12-07T15:30:33;9.73;;;3.10;;
71320;SDS011;59118;54.322;18.576;2022-12-07T15:33:00;8.15;;;3.20;;
71320;SDS011;59118;54.322;18.576;2022-12-07T15:35:27;8.48;;;3.30;;
71320;SDS011;59118;54.322;18.576;2022-12-07T15:37:53;12.95;;;3.10;;
71320;SDS011;59118;54.322;18.576;2022-12-07T15:40:20;9.77;;;3.35;;
71320;SDS011;59118;54.322;18.576;2022-12-07T15:42:48;9.27;;;2.80;;
71320;SDS011;59118;54.322;18.576;2022-12-07T15:45:14;7.53;;;2.83;;
71320;SDS011;59118;54.322;18.576;2022-12-07T15:47:41;8.90;;;3.55;;
71320;SDS011;59118;54.322;18.576;2022-12-07T15:50:29;11.70;;;3.30;;
71320;SDS011;59118;54.322;18.576;2022-12-07T15:52:56;9.25;;;3.78;;
71320;SDS011;59118;54.322;18.576;2022-12-07T15:55:22;8.03;;;3.30;;
71320;SDS011;59118;54.322;18.576;2022-12-07T15:57:49;9.57;;;3.15;;
71320;SDS011;59118;54.322;18.576;2022-12-07T16:00:16;8.73;;;3.50;;
71320;SDS011;59118;54.322;18.576;2022-12-07T16:02:42;8.77;;;3.53;;
71320;SDS011;59118;54.322;18.576;2022-12-07T16:05:11;9.82;;;3.22;;
71320;SDS011;59118;54.322;18.576;2022-12-07T16:07:38;8.07;;;3.47;;
71320;SDS011;59118;54.322;18.576;2022-12-07T16:10:05;11.60;;;4.03;;
71320;SDS011;59118;54.322;18.576;2022-12-07T16:12:32;11.00;;;3.40;;
71320;SDS011;59118;54.322;18.576;2022-12-07T16:14:59;6.70;;;2.67;;
71320;SDS011;59118;54.322;18.576;2022-12-07T16:17:27;9.18;;;3.40;;
71320;SDS011;59118;54.322;18.576;2022-12-07T16:19:53;8.13;;;2.80;;
71320;SDS011;59118;54.322;18.576;2022-12-07T16:22:20;10.00;;;3.05;;
71320;SDS011;59118;54.322;18.576;2022-12-07T16:24:46;6.45;;;2.67;;
71320;SDS011;59118;54.322;18.576;2022-12-07T16:27:13;11.13;;;2.95;;
71320;SDS011;59118;54.322;18.576;2022-12-07T16:29:40;7.15;;;2.60;;
71320;SDS011;59118;54.322;18.576;2022-12-07T16:32:06;8.17;;;2.70;;
71320;SDS011;59118;54.322;18.576;2022-12-07T16:34:32;9.57;;;2.90;;
71320;SDS011;59118;54.322;18.576;2022-12-07T16:36:59;6.57;;;2.30;;
71320;SDS011;59118;54.322;18.576;2022-12-07T16:39:30;7.93;;;2.42;;
71320;SDS011;59118;54.322;18.576;2022-12-07T16:41:57;5.80;;;2.22;;
71320;SDS011;59118;54.322;18.576;2022-12-07T16:44:23;6.20;;;2.57;;
71320;SDS011;59118;54.322;18.576;2022-12-07T16:46:50;5.38;;;2.20;;
71320;SDS011;59118;54.322;18.576;2022-12-07T16:49:17;6.32;;;2.63;;
71320;SDS011;59118;54.322;18.576;2022-12-07T16:51:44;7.75;;;2.53;;
71320;SDS011;59118;54.322;18.576;2022-12-07T16:54:12;6.28;;;2.28;;
71320;SDS011;59118;54.322;18.576;2022-12-07T16:56:39;8.43;;;2.83;;
71320;SDS011;59118;54.322;18.576;2022-12-07T16:59:05;6.28;;;2.65;;
71320;SDS011;59118;54.322;18.576;2022-12-07T17:01:32;7.97;;;3.15;;
71320;SDS011;59118;54.322;18.576;2022-12-07T17:04:01;6.93;;;2.63;;
71320;SDS011;59118;54.322;18.576;2022-12-07T17:06:28;7.13;;;2.47;;